Time;durP1;ratioP1;P1;durP2;ratioP2;P2;SDS_P1;SDS_P2;PMS_P1;PMS_P2;Temp;Humidity;BMP_temperature;BMP_pressure;BME280_temperature;BME280_humidity;BME280_pressure;Samples;Min_cycle;Max_cycle;Signal;HPM_P1;HPM_P2
2021/05/17 00:01:59;;;;;;;39.22;17.90;;;;;;;15.97;61.10;99007.63;5036874;28;20566;-71
2021/05/17 00:04:32;;;;;;;31.48;17.33;;;;;;;15.91;61.27;99001.47;5045579;28;20037;-71
2021/05/17 00:07:01;;;;;;;39.70;17.52;;;;;;;15.87;61.55;99003.25;5040806;28;20037;-69
2021/05/17 00:09:27;;;;;;;51.85;18.65;;;;;;;15.77;61.59;99001.66;5036346;28;20072;-69
2021/05/17 00:11:57;;;;;;;42.85;19.55;;;;;;;15.60;62.35;99006.09;5040000;28;20414;-70
2021/05/17 00:14:25;;;;;;;45.28;19.52;;;;;;;15.41;62.98;98994.63;5047197;28;20063;-70
2021/05/17 00:16:52;;;;;;;36.83;18.80;;;;;;;15.35;63.38;99005.00;5049169;28;20048;-70
2021/05/17 00:19:19;;;;;;;43.20;18.63;;;;;;;15.23;64.14;98993.84;5045819;28;20095;-70
2021/05/17 00:21:45;;;;;;;45.33;19.77;;;;;;;15.19;64.18;98990.13;5049037;28;20057;-71
2021/05/17 00:24:15;;;;;;;44.13;20.33;;;;;;;15.09;64.47;98999.53;5048667;28;20604;-71
2021/05/17 00:26:41;;;;;;;41.72;18.05;;;;;;;15.12;64.14;99005.16;5034447;28;20766;-70
2021/05/17 00:29:09;;;;;;;43.75;20.13;;;;;;;15.15;63.93;99001.78;5041543;28;20055;-69
2021/05/17 00:31:36;;;;;;;39.45;17.35;;;;;;;15.22;63.58;99004.06;5032655;28;20199;-71
2021/05/17 00:34:03;;;;;;;46.55;17.77;;;;;;;15.28;63.03;99007.44;5045870;28;20607;-71
2021/05/17 00:36:30;;;;;;;37.28;17.10;;;;;;;15.32;63.08;99008.41;5046504;28;20045;-69
2021/05/17 00:38:57;;;;;;;42.60;15.48;;;;;;;15.33;62.98;99007.28;5043349;28;20045;-68
2021/05/17 00:41:24;;;;;;;30.48;14.82;;;;;;;15.28;62.76;99000.00;5039686;28;20065;-71
2021/05/17 00:43:52;;;;;;;31.13;15.68;;;;;;;15.38;62.85;99014.56;5035810;28;20057;-71
2021/05/17 00:46:18;;;;;;;;;;;;;;;15.39;62.84;99005.16;5046116;28;20058;-71
2021/05/17 00:48:45;;;;;;;44.23;16.37;;;;;;;15.35;62.83;99004.19;5042233;28;19925;-68
2021/05/17 00:51:11;;;;;;;34.40;14.68;;;;;;;15.30;63.02;98997.72;5040968;28;20525;-71
2021/05/17 00:53:37;;;;;;;31.85;16.00;;;;;;;15.29;62.86;99001.59;5042031;28;20579;-71
2021/05/17 00:56:06;;;;;;;40.38;19.10;;;;;;;15.14;64.12;99002.94;5041324;28;20041;-71
2021/05/17 00:58:36;;;;;;;47.72;18.00;;;;;;;15.05;64.02;99002.09;5036633;28;20053;-70
2021/05/17 01:01:03;;;;;;;35.92;15.52;;;;;;;15.00;64.39;99005.84;5044050;28;20531;-68
2021/05/17 01:03:29;;;;;;;;;;;;;;;15.02;63.99;99005.50;5048549;28;20451;-68
2021/05/17 01:06:03;;;;;;;29.60;15.38;;;;;;;15.07;63.64;99007.31;5044348;28;19964;-70
2021/05/17 01:08:34;;;;;;;30.52;14.38;;;;;;;15.01;63.52;99001.16;5035864;28;20073;-70
2021/05/17 01:11:03;;;;;;;30.40;13.95;;;;;;;14.98;63.90;99010.84;5049923;28;20148;-70
2021/05/17 01:13:31;;;;;;;29.15;11.77;;;;;;;14.96;63.71;99004.88;5044578;28;20515;-70
2021/05/17 01:15:59;;;;;;;28.80;12.05;;;;;;;14.95;63.40;99006.00;5042615;28;20084;-71
2021/05/17 01:18:27;;;;;;;29.40;12.63;;;;;;;14.98;63.45;99007.28;5042707;28;20110;-70
2021/05/17 01:20:54;;;;;;;35.55;11.90;;;;;;;15.00;63.64;99013.28;5046450;28;20053;-70
2021/05/17 01:25:54;;;;;;;35.58;12.77;;;;;;;15.04;63.37;99028.03;5044182;28;20064;-70
2021/05/17 01:28:23;;;;;;;30.67;13.15;;;;;;;15.03;63.65;99021.69;5042721;28;20141;-70
2021/05/17 01:30:52;;;;;;;38.03;12.57;;;;;;;15.06;63.71;99023.00;5041549;28;20052;-71
2021/05/17 01:33:19;;;;;;;39.50;14.40;;;;;;;15.09;63.56;99024.31;5032203;28;20140;-71
2021/05/17 01:35:50;;;;;;;37.88;14.00;;;;;;;15.06;63.69;99031.25;5040744;28;20505;-71
2021/05/17 01:38:18;;;;;;;31.63;12.63;;;;;;;15.08;63.45;99028.19;5048250;28;20053;-71
2021/05/17 01:40:46;;;;;;;26.35;12.27;;;;;;;15.07;63.77;99034.84;5035180;28;20049;-71
2021/05/17 01:43:14;;;;;;;35.10;14.65;;;;;;;15.02;63.95;99024.78;5029034;28;20040;-71
2021/05/17 01:45:41;;;;;;;27.90;13.43;;;;;;;15.05;63.56;99028.81;5043305;28;20037;-70
2021/05/17 01:48:08;;;;;;;28.13;12.10;;;;;;;15.01;63.63;99023.16;5030195;28;20049;-70
2021/05/17 01:50:35;;;;;;;24.73;11.95;;;;;;;14.92;64.10;99027.84;5049977;28;20088;-69
2021/05/17 01:53:02;;;;;;;38.65;14.02;;;;;;;14.91;64.04;99035.31;5044481;28;20047;-68
2021/05/17 01:55:29;;;;;;;29.03;12.73;;;;;;;14.80;63.98;99023.00;5043427;28;20501;-69
2021/05/17 01:58:06;;;;;;;24.55;11.07;;;;;;;14.78;63.67;99022.50;5047823;28;20086;-69
2021/05/17 02:00:34;;;;;;;27.20;11.60;;;;;;;14.84;63.94;99035.78;5021367;28;20053;-68
2021/05/17 02:03:01;;;;;;;27.55;12.10;;;;;;;14.86;63.59;99027.19;5028960;28;20048;-69
2021/05/17 02:05:29;;;;;;;42.92;12.32;;;;;;;14.81;63.67;99019.91;5029230;28;20102;-69
2021/05/17 02:07:56;;;;;;;23.90;11.80;;;;;;;14.95;63.28;99038.19;5043893;28;20041;-70
2021/05/17 02:10:23;;;;;;;33.13;13.55;;;;;;;15.02;63.31;99035.78;5039995;28;20559;-70
2021/05/17 02:12:51;;;;;;;27.40;13.07;;;;;;;14.96;63.63;99029.63;5041674;28;20442;-71
2021/05/17 02:15:19;;;;;;;26.15;12.07;;;;;;;15.01;63.68;99036.94;5034937;28;20053;-71
2021/05/17 02:18:01;;;;;;;25.67;12.00;;;;;;;15.02;63.51;99039.34;5043234;28;20051;-70
2021/05/17 02:20:31;;;;;;;31.48;13.10;;;;;;;15.04;63.21;99030.78;5043982;28;20057;-70
2021/05/17 02:22:58;;;;;;;23.05;11.45;;;;;;;15.06;63.46;99038.69;5041780;28;20072;-70
2021/05/17 02:25:26;;;;;;;28.50;11.63;;;;;;;15.04;63.03;99033.53;5044920;28;20116;-70
2021/05/17 02:27:56;;;;;;;27.35;10.95;;;;;;;15.09;63.04;99038.88;5038930;28;20581;-71
2021/05/17 02:30:24;;;;;;;24.17;11.77;;;;;;;15.10;62.96;99037.72;5024483;28;20409;-70
2021/05/17 02:32:52;;;;;;;30.02;12.35;;;;;;;15.11;63.20;99042.09;5044726;28;20053;-71
2021/05/17 02:35:27;;;;;;;22.70;11.25;;;;;;;15.07;63.21;99032.09;5040988;28;20119;-71
2021/05/17 02:37:54;;;;;;;31.17;11.65;;;;;;;15.07;63.31;99026.56;5048606;28;20094;-70
2021/05/17 02:40:21;;;;;;;21.00;11.67;;;;;;;15.10;63.17;99029.47;5042464;28;20052;-71
2021/05/17 02:42:49;;;;;;;26.02;11.45;;;;;;;15.25;62.36;99032.88;5046978;28;20045;-68
2021/05/17 02:45:23;;;;;;;28.25;11.57;;;;;;;15.37;62.34;99032.19;5035841;28;20053;-69
2021/05/17 02:47:53;;;;;;;23.00;12.07;;;;;;;15.37;62.21;99029.44;5030783;28;20037;-68
2021/05/17 02:50:28;;;;;;;25.75;12.63;;;;;;;15.31;62.40;99026.06;5048611;28;20053;-70
2021/05/17 02:52:55;;;;;;;30.55;12.52;;;;;;;15.28;62.58;99026.69;5046180;28;20048;-70
2021/05/17 02:55:29;;;;;;;32.15;13.80;;;;;;;15.31;62.43;99023.31;5047795;28;20083;-71
2021/05/17 02:58:03;;;;;;;33.67;13.32;;;;;;;15.39;62.40;99021.69;5025699;28;20044;-69
2021/05/17 03:00:33;;;;;;;29.45;12.90;;;;;;;15.43;62.45;99028.94;5043759;28;20045;-70
2021/05/17 03:03:13;;;;;;;37.20;12.57;;;;;;;15.46;61.99;99024.75;5020131;28;20052;-70
2021/05/17 03:05:55;;;;;;;29.33;12.40;;;;;;;15.47;62.41;99020.06;5031027;28;20484;-68
2021/05/17 03:08:29;;;;;;;25.80;12.57;;;;;;;15.42;62.36;99027.34;5034707;28;20084;-69
2021/05/17 03:10:57;;;;;;;23.73;12.07;;;;;;;15.42;62.34;99024.59;5032498;28;20360;-69
2021/05/17 03:13:25;;;;;;;31.70;12.43;;;;;;;15.49;62.41;99015.81;5036802;28;20041;-70
2021/05/17 03:15:53;;;;;;;28.77;11.95;;;;;;;15.54;62.24;99021.19;5039009;28;20041;-70
2021/05/17 03:18:19;;;;;;;;;;;;;;;15.55;62.06;99020.03;5047202;28;20049;-71
2021/05/17 03:20:45;;;;;;;23.75;11.27;;;;;;;15.54;62.51;99020.34;5050093;28;19932;-70
2021/05/17 03:23:14;;;;;;;25.23;12.18;;;;;;;15.54;62.54;99021.19;5044684;28;20038;-69
2021/05/17 03:25:43;;;;;;;27.73;11.70;;;;;;;15.55;62.45;99024.72;5043475;28;20044;-69
2021/05/17 03:28:09;;;;;;;29.77;11.40;;;;;;;15.54;62.32;99020.34;5046337;28;20526;-70
2021/05/17 03:30:35;;;;;;;28.90;10.75;;;;;;;15.57;62.19;99022.44;5043023;28;20543;-70
2021/05/17 03:33:02;;;;;;;29.10;9.75;;;;;;;15.70;61.58;99028.94;5029763;28;20052;-70
2021/05/17 03:35:29;;;;;;;24.45;10.13;;;;;;;15.67;61.52;99019.34;5045127;28;20073;-70
2021/05/17 03:37:55;;;;;;;25.42;9.75;;;;;;;15.75;61.38;99023.22;5041514;28;20059;-70
2021/05/17 03:40:22;;;;;;;20.67;10.13;;;;;;;15.83;61.17;99027.09;5042787;28;20414;-70
2021/05/17 03:42:48;;;;;;;22.50;10.03;;;;;;;15.92;61.32;99021.59;5044625;28;20493;-69
2021/05/17 03:45:15;;;;;;;23.13;11.63;;;;;;;15.94;61.31;99024.81;5045156;28;20049;-70
2021/05/17 03:47:41;;;;;;;;;;;;;;;15.92;61.20;99030.69;5041795;28;20437;-70
2021/05/17 03:50:11;;;;;;;29.92;9.95;;;;;;;15.98;61.15;99031.28;5038266;28;19925;-69
2021/05/17 03:52:37;;;;;;;21.77;10.52;;;;;;;16.08;61.39;99028.16;5051274;28;20103;-70
2021/05/17 03:55:04;;;;;;;22.40;9.73;;;;;;;16.13;61.08;99033.50;5051356;28;20135;-70
2021/05/17 03:57:31;;;;;;;33.42;10.32;;;;;;;16.20;60.82;99026.66;5046313;28;20497;-69
2021/05/17 03:59:57;;;;;;;26.98;9.63;;;;;;;16.35;60.90;99041.84;5063337;28;20052;-71
2021/05/17 04:02:24;;;;;;;21.85;8.65;;;;;;;16.44;60.36;99037.88;5046359;28;20045;-70
2021/05/17 04:13:27;;;;;;;22.10;8.35;;;;;;;16.84;59.11;99022.06;5006650;28;20057;-68
2021/05/17 04:15:54;;;;;;;;;;;;;;;16.92;58.84;99017.63;5026694;28;20441;-71
2021/05/17 04:18:21;;;;;;;25.60;8.98;;;;;;;16.83;58.99;99018.50;5039512;28;19955;-70
2021/05/17 04:20:50;;;;;;;30.33;8.63;;;;;;;16.87;58.77;99011.16;5039260;28;20057;-70
2021/05/17 04:23:20;;;;;;;23.77;8.60;;;;;;;17.05;58.29;99015.75;5044940;28;20049;-69
2021/05/17 04:25:46;;;;;;;24.50;8.95;;;;;;;17.14;58.52;99016.50;5035777;28;20049;-69
2021/05/17 04:28:12;;;;;;;19.88;9.43;;;;;;;17.07;58.25;98994.13;5046565;28;20175;-70
2021/05/17 04:30:38;;;;;;;19.35;8.38;;;;;;;17.08;58.47;99006.78;5048996;28;20140;-69
2021/05/17 04:33:05;;;;;;;24.58;8.23;;;;;;;17.22;57.90;99004.56;5046358;28;20041;-71
2021/05/17 04:35:31;;;;;;;20.50;8.00;;;;;;;17.27;57.70;99009.91;5051374;28;20045;-71
2021/05/17 04:38:00;;;;;;;22.05;8.20;;;;;;;17.38;57.65;99003.94;5050200;28;20051;-68
2021/05/17 04:40:27;;;;;;;18.35;6.68;;;;;;;17.37;56.98;99011.44;5049409;28;20053;-71
2021/05/17 04:42:53;;;;;;;26.33;7.43;;;;;;;17.52;57.53;99009.97;5043165;28;20060;-70
2021/05/17 04:45:25;;;;;;;19.52;7.68;;;;;;;17.65;57.31;99013.59;5033481;28;20095;-72
2021/05/17 04:47:53;;;;;;;25.35;7.60;;;;;;;17.67;56.81;99007.69;5035177;28;20077;-71
2021/05/17 04:50:19;;;;;;;19.85;7.28;;;;;;;17.81;56.46;99007.41;5062341;28;20063;-71
2021/05/17 04:52:45;;;;;;;23.23;7.45;;;;;;;17.90;56.32;99007.28;5047358;28;20049;-70
2021/05/17 04:55:13;;;;;;;27.63;7.22;;;;;;;17.85;56.00;99003.59;5041182;28;20055;-70
2021/05/17 04:57:40;;;;;;;13.52;6.03;;;;;;;17.91;56.19;98998.63;5033462;28;20140;-70
2021/05/17 05:00:08;;;;;;;19.10;7.00;;;;;;;18.10;55.59;99000.06;5049249;28;20052;-68
2021/05/17 05:02:35;;;;;;;14.70;6.05;;;;;;;18.21;55.18;99004.00;5043615;28;20420;-69
2021/05/17 05:05:01;;;;;;;23.53;6.03;;;;;;;18.32;55.28;99009.88;5026244;28;20595;-70
2021/05/17 05:07:28;;;;;;;11.55;5.25;;;;;;;18.38;54.96;99014.03;5043579;28;20493;-70
2021/05/17 05:09:54;;;;;;;12.75;5.57;;;;;;;18.49;54.87;99017.13;5032773;28;20601;-70
2021/05/17 05:12:20;;;;;;;18.15;5.95;;;;;;;18.55;54.51;99007.44;5035988;28;20051;-68
2021/05/17 05:14:47;;;;;;;21.10;6.07;;;;;;;18.68;54.43;99022.06;5032314;28;20053;-72
2021/05/17 05:17:13;;;;;;;20.95;5.28;;;;;;;18.71;54.21;99020.56;5045564;28;20052;-73
2021/05/17 05:19:40;;;;;;;12.60;5.10;;;;;;;18.82;53.71;99021.69;5029985;28;20508;-74
2021/05/17 05:22:07;;;;;;;17.05;6.05;;;;;;;18.93;52.83;99021.22;5048248;28;20041;-74
2021/05/17 05:24:33;;;;;;;18.95;4.93;;;;;;;18.94;52.02;99023.63;5040655;28;20048;-75
2021/05/17 05:32:23;;;;;;;17.33;4.93;;;;;;;19.27;52.28;99027.38;5038057;28;20056;-71
2021/05/17 05:34:50;;;;;;;15.57;5.35;;;;;;;19.34;52.17;99016.47;5057368;28;20068;-72
2021/05/17 05:37:16;;;;;;;24.45;5.32;;;;;;;19.40;51.46;99014.25;5042411;28;20063;-73
2021/05/17 05:39:42;;;;;;;15.07;4.93;;;;;;;19.48;51.09;99010.53;5041636;28;20099;-72
2021/05/17 05:42:09;;;;;;;13.63;4.95;;;;;;;19.50;51.01;99008.22;5047255;28;20483;-73
2021/05/17 05:44:46;;;;;;;15.98;4.90;;;;;;;19.63;51.30;99010.91;5037479;28;20057;-71
2021/05/17 05:47:16;;;;;;;11.85;5.43;;;;;;;19.65;51.33;99009.38;5042092;28;20091;-72
2021/05/17 05:49:43;;;;;;;11.95;4.70;;;;;;;19.74;50.70;99008.41;5048627;28;20095;-72
2021/05/17 05:52:09;;;;;;;14.60;5.25;;;;;;;19.81;50.66;99006.63;5038537;28;20140;-72
2021/05/17 05:54:35;;;;;;;13.98;5.20;;;;;;;19.93;50.57;99010.53;5035721;28;20048;-70
2021/05/17 05:57:02;;;;;;;13.13;4.95;;;;;;;20.00;50.04;99015.47;5031035;28;20057;-69
2021/05/17 05:59:28;;;;;;;15.00;5.20;;;;;;;20.08;50.23;99008.91;5044269;28;20218;-70
2021/05/17 06:01:54;;;;;;;12.88;4.72;;;;;;;20.16;49.98;99012.66;5047016;28;20049;-71
2021/05/17 06:04:21;;;;;;;13.60;4.72;;;;;;;20.20;49.33;99008.81;5042811;28;20078;-71
2021/05/17 06:06:47;;;;;;;20.38;4.90;;;;;;;20.30;49.76;99010.25;5048485;28;20106;-70
2021/05/17 06:09:14;;;;;;;13.70;4.17;;;;;;;20.39;49.44;98999.75;5064899;28;20140;-70
2021/05/17 06:11:40;;;;;;;30.87;4.77;;;;;;;20.54;49.85;99005.66;5040175;28;20042;-70
2021/05/17 06:14:08;;;;;;;12.30;4.27;;;;;;;20.59;48.43;99002.59;5037138;28;20091;-70
2021/05/17 06:16:34;;;;;;;17.00;4.60;;;;;;;20.63;48.32;98997.13;5029399;28;20964;-71
2021/05/17 06:19:01;;;;;;;10.93;4.05;;;;;;;20.75;48.60;99005.28;5030038;28;20140;-71
2021/05/17 06:21:29;;;;;;;23.95;4.63;;;;;;;20.78;47.91;98998.22;5052766;28;20037;-71
2021/05/17 06:23:57;;;;;;;19.45;5.38;;;;;;;20.85;47.66;98994.81;5037462;28;20132;-71
2021/05/17 06:26:24;;;;;;;18.58;4.60;;;;;;;20.92;47.67;98995.78;5047072;28;20136;-71
2021/05/17 06:28:51;;;;;;;14.38;4.40;;;;;;;20.94;47.97;98981.53;5049792;28;20053;-72
2021/05/17 06:31:18;;;;;;;19.67;4.47;;;;;;;21.09;48.04;98991.78;5048695;28;20527;-71
2021/05/17 06:33:47;;;;;;;12.52;4.25;;;;;;;21.18;48.05;98982.41;5048598;28;20053;-71
2021/05/17 06:36:15;;;;;;;11.88;4.18;;;;;;;21.19;47.68;98973.72;5051283;28;20059;-75
2021/05/17 06:38:42;;;;;;;11.25;4.45;;;;;;;21.25;47.29;98985.34;5047318;28;20049;-71
2021/05/17 06:41:08;;;;;;;;;;;;;;;21.26;46.81;98984.16;5049064;28;20132;-72
2021/05/17 06:43:35;;;;;;;10.70;4.27;;;;;;;21.36;46.39;98977.19;5049023;28;19931;-73
2021/05/17 06:46:02;;;;;;;11.07;4.10;;;;;;;21.41;46.85;98973.31;5042207;28;20311;-70
2021/05/17 06:48:29;;;;;;;19.92;4.47;;;;;;;21.51;46.85;98970.72;5048472;28;20440;-70
2021/05/17 06:50:55;;;;;;;12.38;4.07;;;;;;;21.59;46.43;98968.06;5044963;28;20055;-70
2021/05/17 06:53:22;;;;;;;17.17;4.20;;;;;;;21.73;46.97;98971.13;5049820;28;20143;-70
2021/05/17 06:58:22;;;;;;;16.10;4.15;;;;;;;21.85;46.14;98961.00;5048739;28;20408;-68
2021/05/17 07:00:49;;;;;;;21.17;4.20;;;;;;;21.95;45.86;98969.53;5048277;28;20471;-67
2021/05/17 07:03:15;;;;;;;15.87;4.20;;;;;;;22.04;45.25;98962.91;5042532;28;20587;-70
2021/05/17 07:05:42;;;;;;;9.77;4.03;;;;;;;22.04;45.63;98949.00;5043554;28;20408;-68
2021/05/17 07:13:22;;;;;;;17.33;4.72;;;;;;;22.30;45.02;98947.38;5043483;28;19925;-69
2021/05/17 07:15:47;;;;;;;;;;;;;;;22.35;44.91;98945.09;5046777;28;20500;-70
2021/05/17 07:18:13;;;;;;;23.10;4.65;;;;;;;22.38;43.84;98935.19;5054098;28;19964;-71
2021/05/17 07:25:53;;;;;;;16.45;4.80;;;;;;;22.60;43.40;98927.97;5034912;28;20053;-71
2021/05/17 07:28:19;;;;;;;22.77;5.60;;;;;;;22.73;43.95;98939.66;5034699;28;20092;-69
2021/05/17 07:30:47;;;;;;;24.15;5.35;;;;;;;22.78;43.72;98930.97;5050588;28;20139;-70
2021/05/17 07:33:14;;;;;;;14.98;4.28;;;;;;;22.88;43.07;98928.69;5051356;28;20056;-69
2021/05/17 07:35:41;;;;;;;18.20;3.60;;;;;;;22.93;42.88;98929.16;5040920;28;20516;-71
2021/05/17 07:38:07;;;;;;;21.52;4.82;;;;;;;23.00;43.35;98925.66;5036854;28;20403;-69
2021/05/17 07:40:34;;;;;;;25.13;5.72;;;;;;;23.07;43.72;98925.72;5056565;28;20075;-71
2021/05/17 07:43:00;;;;;;;13.40;4.43;;;;;;;23.15;43.86;98926.59;5039555;28;20125;-69
2021/05/17 07:45:26;;;;;;;22.73;4.93;;;;;;;23.23;43.40;98924.69;5052621;28;20049;-69
2021/05/17 07:47:53;;;;;;;13.93;4.38;;;;;;;23.36;43.06;98916.91;5040048;28;20129;-72
2021/05/17 07:50:20;;;;;;;;;;;;;;;23.41;42.01;98916.56;5040155;28;20056;-68
2021/05/17 07:52:46;;;;;;;21.60;3.88;;;;;;;23.49;41.42;98918.25;5053904;28;20449;-69
2021/05/17 07:55:13;;;;;;;38.20;4.10;;;;;;;23.47;40.72;98919.81;5047571;28;20041;-73
2021/05/17 07:57:39;;;;;;;21.33;4.07;;;;;;;23.51;41.04;98915.03;5052421;28;20408;-69
2021/05/17 08:00:07;;;;;;;19.45;5.05;;;;;;;23.50;40.84;98924.59;5049388;28;20044;-72
2021/05/17 08:02:34;;;;;;;19.50;4.88;;;;;;;23.54;41.48;98914.28;5031471;28;20056;-69
2021/05/17 08:05:01;;;;;;;16.45;4.35;;;;;;;23.60;41.49;98917.50;5050644;28;20103;-69
2021/05/17 08:07:29;;;;;;;19.95;4.00;;;;;;;23.62;40.29;98912.34;5050446;28;20096;-69
2021/05/17 08:09:55;;;;;;;20.38;5.57;;;;;;;23.71;40.06;98912.03;5051938;28;20055;-69
2021/05/17 08:12:21;;;;;;;16.35;5.07;;;;;;;23.81;41.25;98907.75;5051354;28;20037;-75
2021/05/17 08:14:47;;;;;;;16.10;3.87;;;;;;;23.81;39.98;98899.38;5042854;28;20037;-72
2021/05/17 08:17:13;;;;;;;18.00;4.63;;;;;;;23.83;40.51;98899.78;5052557;28;20494;-74
2021/05/17 08:19:39;;;;;;;17.67;4.07;;;;;;;23.98;41.34;98903.47;5047798;28;20051;-76
2021/05/17 08:22:06;;;;;;;12.17;3.93;;;;;;;24.06;41.36;98902.38;5048465;28;20037;-74
2021/05/17 08:24:33;;;;;;;15.85;3.88;;;;;;;23.89;40.46;98868.34;5045572;28;20135;-74
2021/05/17 08:26:59;;;;;;;17.87;3.70;;;;;;;24.05;40.95;98884.03;5049790;28;20064;-75
2021/05/17 08:29:31;;;;;;;14.63;3.80;;;;;;;24.21;40.75;98889.28;5051178;28;20056;-76
2021/05/17 08:31:58;;;;;;;21.98;4.05;;;;;;;24.21;40.35;98878.94;5046270;28;20048;-77
2021/05/17 08:34:24;;;;;;;21.35;4.75;;;;;;;24.29;41.04;98870.59;5048981;28;20054;-76
2021/05/17 08:36:50;;;;;;;19.90;4.85;;;;;;;24.40;40.85;98881.81;5043893;28;20049;-75
2021/05/17 08:39:18;;;;;;;14.73;4.50;;;;;;;24.34;39.91;98881.38;5048956;28;20057;-74
2021/05/17 08:41:43;;;;;;;22.90;4.25;;;;;;;24.34;39.64;98857.06;5053282;28;20045;-73
2021/05/17 08:44:11;;;;;;;27.20;4.18;;;;;;;24.42;40.28;98860.69;5051888;28;20505;-69
2021/05/17 08:46:37;;;;;;;14.80;4.10;;;;;;;24.39;40.63;98858.69;5043814;28;20527;-70
2021/05/17 08:49:03;;;;;;;17.10;4.25;;;;;;;24.57;40.07;98855.16;5050322;28;20048;-74
2021/05/17 08:51:33;;;;;;;23.47;4.40;;;;;;;24.69;40.28;98851.19;5044285;28;20111;-72
2021/05/17 08:54:03;;;;;;;25.33;4.43;;;;;;;24.72;40.11;98847.63;5048165;28;21735;-70
2021/05/17 08:56:30;;;;;;;15.77;4.57;;;;;;;24.72;39.73;98834.47;5051330;28;20040;-70
2021/05/17 08:58:56;;;;;;;;;;;;;;;24.77;39.40;98839.69;5049435;28;20040;-68
2021/05/17 09:01:23;;;;;;;17.50;5.10;;;;;;;24.77;39.20;98848.06;5049493;28;19948;-68
2021/05/17 09:03:54;;;;;;;14.53;4.20;;;;;;;24.76;39.04;98831.72;5050658;28;20053;-69
2021/05/17 09:06:22;;;;;;;16.70;4.05;;;;;;;24.78;38.60;98838.47;5046532;28;20064;-68
2021/05/17 09:08:48;;;;;;;17.38;4.60;;;;;;;24.73;38.87;98821.28;5028459;28;20624;-68
2021/05/17 09:11:30;;;;;;;34.47;5.10;;;;;;;24.86;38.21;98838.53;5046127;28;20052;-68
2021/05/17 09:14:07;;;;;;;19.55;4.63;;;;;;;24.92;38.39;98828.53;5044800;28;20525;-70
2021/05/17 09:16:44;;;;;;;33.58;5.10;;;;;;;25.00;39.48;98824.56;5052080;28;20053;-71
2021/05/17 09:19:11;;;;;;;10.63;3.88;;;;;;;25.02;38.82;98829.75;5055610;28;20049;-67
2021/05/17 09:21:54;;;;;;;11.63;4.50;;;;;;;25.00;38.37;98805.00;5042410;28;20102;-69
2021/05/17 09:24:39;;;;;;;42.03;5.28;;;;;;;25.08;38.64;98797.44;5033243;28;20509;-68
2021/05/17 09:27:09;;;;;;;18.23;4.43;;;;;;;25.17;38.65;98803.41;5031987;28;20095;-69
2021/05/17 09:29:39;;;;;;;19.00;4.45;;;;;;;25.29;38.88;98799.44;5046401;28;20041;-70
2021/05/17 09:32:17;;;;;;;24.88;5.30;;;;;;;25.38;38.81;98799.03;5034335;28;20050;-71
2021/05/17 09:34:57;;;;;;;31.40;4.60;;;;;;;25.43;38.79;98786.63;5049739;28;20118;-69
2021/05/17 09:37:23;;;;;;;22.13;4.47;;;;;;;25.54;38.42;98789.47;5038401;28;20553;-70
2021/05/17 09:39:51;;;;;;;21.55;4.65;;;;;;;25.55;38.29;98791.06;5039092;28;20061;-67
2021/05/17 09:42:22;;;;;;;16.48;4.45;;;;;;;25.53;38.54;98771.88;5043560;28;20056;-70
2021/05/17 09:44:49;;;;;;;19.40;4.88;;;;;;;25.53;38.23;98788.66;5042736;28;20037;-71
2021/05/17 09:47:19;;;;;;;26.02;4.53;;;;;;;25.60;37.86;98779.44;5046251;28;20044;-71
2021/05/17 09:49:50;;;;;;;14.55;4.50;;;;;;;25.69;37.35;98784.63;5014586;28;20045;-69
2021/05/17 09:52:21;;;;;;;26.63;4.95;;;;;;;25.77;38.18;98780.63;5043652;28;20053;-70
2021/05/17 09:55:02;;;;;;;19.15;5.18;;;;;;;25.78;37.12;98779.44;5036361;28;20045;-70
2021/05/17 09:57:34;;;;;;;32.50;5.75;;;;;;;25.81;37.38;98778.63;5033036;28;20060;-69
2021/05/17 10:00:12;;;;;;;15.65;4.90;;;;;;;25.82;37.19;98783.00;5039117;28;20037;-68
2021/05/17 10:02:42;;;;;;;22.42;5.10;;;;;;;25.91;37.40;98789.00;5039486;28;20056;-70
2021/05/17 10:05:23;;;;;;;27.83;5.18;;;;;;;25.97;37.84;98805.38;5054746;28;20053;-70
2021/05/17 10:07:53;;;;;;;19.70;5.28;;;;;;;26.05;37.12;98799.34;5040432;28;20104;-68
2021/05/17 10:10:22;;;;;;;20.25;5.72;;;;;;;26.12;37.71;98786.50;5031256;28;20139;-68
2021/05/17 10:12:51;;;;;;;43.65;6.50;;;;;;;25.97;36.92;98780.97;5030258;28;20060;-67
2021/05/17 10:15:19;;;;;;;22.17;5.10;;;;;;;26.10;37.24;98781.34;5036243;28;20061;-70
2021/05/17 10:17:47;;;;;;;26.42;5.65;;;;;;;26.14;36.96;98787.72;5048697;28;20049;-70
2021/05/17 10:20:15;;;;;;;;;;;;;;;26.23;36.70;98784.50;5031381;28;20051;-71
2021/05/17 10:22:42;;;;;;;22.13;5.60;;;;;;;26.31;37.07;98793.69;5045658;28;19969;-69
2021/05/17 10:25:11;;;;;;;31.02;5.22;;;;;;;26.28;37.15;98772.09;5048927;28;20063;-69
2021/05/17 10:27:43;;;;;;;26.45;5.88;;;;;;;26.39;36.93;98777.63;5051190;28;20037;-69
2021/05/17 10:30:13;;;;;;;31.02;6.70;;;;;;;26.41;36.31;98770.44;5046816;28;20491;-69
2021/05/17 10:32:45;;;;;;;25.80;5.35;;;;;;;26.43;36.32;98764.41;5032660;28;20476;-70
2021/05/17 10:35:15;;;;;;;22.70;6.25;;;;;;;26.43;36.89;98759.59;5045442;28;20102;-67
2021/05/17 10:37:44;;;;;;;26.85;7.13;;;;;;;26.47;36.56;98762.41;5050257;28;20491;-69
2021/05/17 10:40:16;;;;;;;25.05;7.80;;;;;;;26.56;36.77;98748.72;5039088;28;20056;-68
2021/05/17 10:42:56;;;;;;;27.88;7.32;;;;;;;26.59;36.15;98747.13;5030388;28;20175;-68
2021/05/17 10:48:35;;;;;;;32.03;8.50;;;;;;;26.69;35.38;98729.41;5031722;28;20056;-67
2021/05/17 10:51:15;;;;;;;33.88;7.63;;;;;;;26.75;35.47;98739.00;5042908;28;20398;-69
2021/05/17 10:53:50;;;;;;;28.27;7.35;;;;;;;26.79;36.43;98724.16;5048117;28;20041;-70
2021/05/17 10:56:18;;;;;;;25.58;7.32;;;;;;;26.81;36.16;98724.53;5047647;28;20057;-68
2021/05/17 11:01:55;;;;;;;40.30;6.90;;;;;;;26.92;35.86;98718.88;5044906;28;20045;-67
2021/05/17 11:04:39;;;;;;;23.90;6.55;;;;;;;27.01;35.76;98724.81;5050155;28;20176;-68
2021/05/17 11:07:28;;;;;;;19.17;6.18;;;;;;;27.00;35.75;98712.00;5049389;28;20553;-68
2021/05/17 11:10:08;;;;;;;29.85;5.68;;;;;;;26.92;35.03;98704.84;5043242;28;20083;-67
2021/05/17 11:13:09;;;;;;;21.38;5.82;;;;;;;26.84;35.47;98696.47;5043175;28;20063;-70
2021/05/17 11:15:51;;;;;;;23.52;6.55;;;;;;;26.98;36.08;98701.19;5037639;28;20634;-67
2021/05/17 11:18:24;;;;;;;19.27;6.20;;;;;;;27.02;36.15;98701.97;5048427;28;20451;-67
2021/05/17 11:20:52;;;;;;;27.88;7.35;;;;;;;27.06;35.08;98701.94;5037763;28;20042;-67
2021/05/17 11:23:40;;;;;;;34.13;7.53;;;;;;;27.08;34.73;98684.69;5031089;28;20052;-69
2021/05/17 11:26:11;;;;;;;22.70;5.93;;;;;;;27.10;34.95;98690.69;5042946;28;20055;-70
2021/05/17 11:29:01;;;;;;;41.40;6.63;;;;;;;27.09;34.32;98673.06;5047280;28;20083;-69
2021/05/17 11:34:21;;;;;;;43.65;7.15;;;;;;;27.20;34.67;98672.97;5043130;28;20052;-72
2021/05/17 11:36:51;;;;;;;34.30;7.75;;;;;;;27.14;34.37;98667.00;5037968;28;20048;-70
2021/05/17 11:39:20;;;;;;;32.03;7.95;;;;;;;27.24;34.75;98672.91;5045742;28;20075;-69
2021/05/17 11:41:50;;;;;;;58.67;9.23;;;;;;;27.26;34.68;98664.91;5049900;28;20509;-72
2021/05/17 11:44:22;;;;;;;30.30;7.50;;;;;;;27.23;34.06;98655.31;5063668;28;20045;-77
2021/05/17 11:46:50;;;;;;;31.27;6.25;;;;;;;27.29;33.78;98662.03;5040034;28;20413;-73
2021/05/17 11:49:18;;;;;;;29.48;7.68;;;;;;;27.31;33.84;98668.03;5048412;28;20485;-72
2021/05/17 11:51:47;;;;;;;22.88;6.55;;;;;;;27.35;34.34;98658.81;5039030;28;20053;-69
2021/05/17 11:54:13;;;;;;;21.00;6.20;;;;;;;27.39;33.73;98653.94;5030943;28;20670;-70
2021/05/17 11:56:41;;;;;;;31.95;6.70;;;;;;;27.44;34.29;98647.84;5048622;28;20081;-73
2021/05/17 11:59:11;;;;;;;19.45;6.30;;;;;;;27.47;33.41;98644.22;5056751;28;20041;-73
2021/05/17 12:01:39;;;;;;;29.60;6.57;;;;;;;27.47;33.90;98624.56;5041399;28;20049;-70
2021/05/17 12:04:19;;;;;;;29.55;7.82;;;;;;;27.58;34.44;98646.94;5052476;28;20124;-67
2021/05/17 12:06:47;;;;;;;33.95;6.82;;;;;;;27.63;33.75;98626.00;5053461;28;20060;-68
2021/05/17 12:09:29;;;;;;;24.65;6.22;;;;;;;27.60;33.92;98636.09;5051269;28;20049;-69
2021/05/17 12:11:55;;;;;;;41.58;7.25;;;;;;;27.61;33.33;98626.44;5048188;28;20160;-74